Polfoss — V2PN7 — position and weather

sailwx.info

Track history (hours):
 
Tides and Currents Weather Stations Pressure Air Temp Water Temp Dewpoint Dewpoint Depression Visibility Wind Speed Wind Dir Waves Ship Positions

Polfoss

Last reported at 2014-Sep-17 21:09 UTC. Time now 2014-Sep-19 19:54 UTC.
Position N 69°45' E 019°05'.

Length 82 m; draft 5.2 m.

Type: Cargo ship. MMSI: 305081000.

Date/timePositionNaut miles runAvg speedWind from/ knotsBaromVisibWave heightAir tempDewpointWater temp
2014-Sep-17 21:09N 69°45' E 019°05'610.6
2014-Sep-17 20:34N 69°39' E 018°58'0 0.0
2014-Sep-17 19:34N 69°39' E 018°58'0 0.0
2014-Sep-17 18:33N 69°39' E 018°58'4 4.5
2014-Sep-17 17:33N 69°36' E 018°52'151 6.5
2014-Sep-16 18:24N 67°44' E 014°12'1315.4
2014-Sep-16 17:33N 67°32' E 014°21'1413.8
2014-Sep-16 16:33N 67°18' E 014°17'1515.2
2014-Sep-16 15:33N 67°05' E 013°56'4614.1
2014-Sep-16 12:16N 66°25' E 012°59'1814.9
2014-Sep-16 11:04N 66°07' E 012°46'5114.0
2014-Sep-16 07:25N 65°20' E 012°01'1315.2
2014-Sep-16 06:33N 65°08' E 011°49'1414.5
2014-Sep-16 05:33N 64°56' E 011°28'1414.3
2014-Sep-16 04:33N 64°46' E 011°03'358 7.4
2014-Sep-14 04:26N 59°28' E 005°13'1412.8
2014-Sep-14 03:20N 59°15' E 005°21'1113.7
2014-Sep-14 02:33N 59°06' E 005°32'1211.9
2014-Sep-14 01:34N 58°57' E 005°47'4 1.0
2014-Sep-13 21:34N 58°53' E 005°45'3 3.4
2014-Sep-13 20:33N 58°57' E 005°45'0 0.0
2014-Sep-13 19:34N 58°57' E 005°45'8 8.0
2014-Sep-13 18:34N 59°02' E 005°34'1313.0
2014-Sep-13 17:33N 58°50' E 005°26'16714.7
2014-Sep-13 06:10N 57°45' E 000°34'3914.4
2014-Sep-13 03:28N 57°29' W 000°33'1614.1
2014-Sep-13 02:20N 57°23' W 001°01'1214.3
2014-Sep-13 01:29N 57°18' W 001°21'1514.2
2014-Sep-13 00:25N 57°13' W 001°47'51 3.0
2014-Sep-12 07:12N 56°23' W 001°28'1115.2
2014-Sep-12 06:27N 56°12' W 001°21'1414.4
2014-Sep-12 05:28N 55°59' W 001°12'1613.9
2014-Sep-12 04:18N 55°44' W 001°01'1114.0
2014-Sep-12 03:32N 55°34' W 000°54'1414.2
2014-Sep-12 02:33N 55°21' W 000°45'1514.8
2014-Sep-12 01:34N 55°07' W 000°36'1915.3
2014-Sep-12 00:21N 54°50' W 000°24'1316.0
2014-Sep-11 23:33N 54°38' W 000°17'1616.5
2014-Sep-11 22:33N 54°23' W 000°06'1616.2
2014-Sep-11 21:33N 54°08' E 000°05'1615.4
2014-Sep-11 20:31N 53°53' E 000°15'1414.0
2014-Sep-11 19:32N 53°40' E 000°23'1111.2
2014-Sep-11 18:33N 53°33' E 000°08'8 7.5
2014-Sep-11 17:33N 53°35' W 000°04'0 0.0
2014-Sep-11 16:33N 53°35' W 000°04'0 0.0
2014-Sep-11 15:33N 53°35' W 000°04'0 0.0
2014-Sep-11 14:33N 53°35' W 000°04'0 0.0
2014-Sep-11 13:33N 53°35' W 000°04'0 0.0
2014-Sep-11 12:33N 53°35' W 000°04'0 0.0
2014-Sep-11 11:33N 53°35' W 000°04'0 0.0
2014-Sep-11 10:33N 53°35' W 000°04'0 0.0
2014-Sep-11 09:32N 53°35' W 000°04'0 0.0
2014-Sep-11 08:33N 53°35' W 000°04'0 0.0
2014-Sep-11 07:33N 53°35' W 000°04'0 0.0
2014-Sep-11 06:33N 53°35' W 000°04'0 0.0
2014-Sep-11 05:33N 53°35' W 000°04'0 0.0
2014-Sep-11 04:33N 53°35' W 000°04'0 0.0
2014-Sep-11 03:33N 53°35' W 000°04'0 0.0
2014-Sep-11 02:33N 53°35' W 000°04'0 0.0
2014-Sep-11 01:33N 53°35' W 000°04'0 0.0
2014-Sep-11 00:34N 53°35' W 000°04'0 0.0
2014-Sep-10 23:33N 53°35' W 000°04'0 0.0
2014-Sep-10 22:33N 53°35' W 000°04'0 0.0
2014-Sep-10 21:33N 53°35' W 000°04'0 0.0
2014-Sep-10 20:33N 53°35' W 000°04'0 0.0
2014-Sep-10 19:33N 53°35' W 000°04'0 0.0
2014-Sep-10 18:33N 53°35' W 000°04'0 0.0
2014-Sep-10 17:33N 53°35' W 000°04'0 0.0
2014-Sep-10 16:33N 53°35' W 000°04'0 0.0
2014-Sep-10 15:33N 53°35' W 000°04'0 0.0
2014-Sep-10 14:33N 53°35' W 000°04'0 0.0
2014-Sep-10 13:33N 53°35' W 000°04'0 0.0
2014-Sep-10 12:33N 53°35' W 000°04'0 0.0
2014-Sep-10 11:33N 53°35' W 000°04'0 0.0
2014-Sep-10 10:33N 53°35' W 000°04'0 0.0
2014-Sep-10 09:33N 53°35' W 000°04'0 0.0
2014-Sep-10 08:33N 53°35' W 000°04'0 0.0
2014-Sep-10 07:33N 53°35' W 000°04'0 0.0
2014-Sep-10 06:34N 53°35' W 000°04'0 0.0
2014-Sep-10 05:33N 53°35' W 000°04'0 0.4
2014-Sep-10 04:33N 53°35' W 000°04'4 4.2
2014-Sep-10 03:33N 53°35' E 000°03'1010.4
2014-Sep-10 02:34N 53°31' E 000°19'8 8.0
2014-Sep-10 01:33N 53°27' E 000°31'3511.6
2014-Sep-09 22:33N 53°14' E 001°24'1312.8
2014-Sep-09 21:33N 53°08' E 001°44'1211.2
2014-Sep-09 20:30N 53°03' E 002°01'5112.1
2014-Sep-09 16:16N 52°44' E 003°21'913.1
2014-Sep-09 15:33N 52°40' E 003°34'1312.9
2014-Sep-09 14:33N 52°33' E 003°52'1211.9
2014-Sep-09 13:33N 52°31' E 004°11'1212.7
2014-Sep-09 12:33N 52°28' E 004°31'5 4.8
2014-Sep-09 11:34N 52°28' E 004°39'1 0.6
2014-Sep-09 10:33N 52°28' E 004°40'0 0.0
2014-Sep-09 09:33N 52°28' E 004°40'0 0.0
2014-Sep-09 08:33N 52°28' E 004°40'0 0.0
2014-Sep-09 07:34N 52°28' E 004°40'0 0.0
2014-Sep-09 06:34N 52°28' E 004°40'0 0.0
2014-Sep-09 05:34N 52°28' E 004°40'0 0.0
2014-Sep-09 04:34N 52°28' E 004°40'0 0.0
2014-Sep-09 03:34N 52°28' E 004°40'0 0.0
2014-Sep-09 02:34N 52°28' E 004°40'0 0.0
2014-Sep-09 01:34N 52°28' E 004°40'0 0.0
2014-Sep-09 00:33N 52°28' E 004°40'0 0.0
2014-Sep-08 23:34N 52°28' E 004°40'0 0.0
2014-Sep-08 22:34N 52°28' E 004°40'0 0.0
2014-Sep-08 21:33N 52°28' E 004°40'0 0.0
2014-Sep-08 20:33N 52°28' E 004°40'0 0.0
2014-Sep-08 19:33N 52°28' E 004°40'0 0.0
2014-Sep-08 18:33N 52°28' E 004°40'0 0.0
2014-Sep-08 17:33N 52°28' E 004°40'0 0.0
2014-Sep-08 16:34N 52°28' E 004°40'0 0.0
2014-Sep-08 15:34N 52°28' E 004°40'0 0.0
2014-Sep-08 14:34N 52°28' E 004°40'0 0.0
2014-Sep-08 13:34N 52°28' E 004°40'0 0.0
2014-Sep-08 12:34N 52°28' E 004°40'0 0.0
2014-Sep-08 11:34N 52°28' E 004°40'0 0.0
2014-Sep-08 10:33N 52°28' E 004°40'0 0.0
2014-Sep-08 09:34N 52°28' E 004°40'0 0.0
2014-Sep-08 08:33N 52°28' E 004°40'0 0.0
2014-Sep-08 07:34N 52°28' E 004°40'0 0.0
2014-Sep-08 06:33N 52°28' E 004°40'0 0.0
2014-Sep-08 05:34N 52°28' E 004°40'0 0.0
2014-Sep-08 04:33N 52°28' E 004°40'0 0.0
2014-Sep-08 03:33N 52°28' E 004°40'0 0.0
2014-Sep-08 02:34N 52°28' E 004°40'0 0.0
2014-Sep-08 01:33N 52°28' E 004°40'0 0.0
2014-Sep-08 00:33N 52°28' E 004°40'0 0.0
2014-Sep-07 23:33N 52°28' E 004°40'4 4.5
2014-Sep-07 22:34N 52°28' E 004°33'1413.7
2014-Sep-07 21:34N 52°29' E 004°10'  
Track history (hours):
 
Tides and Currents Weather Stations Pressure Air Temp Water Temp Dewpoint Dewpoint Depression Visibility Wind Speed Wind Dir Waves Ship Positions

Polfoss

Last reported at 2014-Sep-17 21:09 UTC. Time now 2014-Sep-19 19:54 UTC.
Position N 69°45' E 019°05'.

Length 82 m; draft 5.2 m.

Type: Cargo ship. MMSI: 305081000.

Date/timePositionNaut miles runAvg speedWind from/ knotsBaromVisibWave heightAir tempDewpointWater temp
2014-Sep-17 21:09N 69°45' E 019°05'610.6
2014-Sep-17 20:34N 69°39' E 018°58'0 0.0
2014-Sep-17 19:34N 69°39' E 018°58'0 0.0
2014-Sep-17 18:33N 69°39' E 018°58'4 4.5
2014-Sep-17 17:33N 69°36' E 018°52'151 6.5
2014-Sep-16 18:24N 67°44' E 014°12'1315.4
2014-Sep-16 17:33N 67°32' E 014°21'1413.8
2014-Sep-16 16:33N 67°18' E 014°17'1515.2
2014-Sep-16 15:33N 67°05' E 013°56'4614.1
2014-Sep-16 12:16N 66°25' E 012°59'1814.9
2014-Sep-16 11:04N 66°07' E 012°46'5114.0
2014-Sep-16 07:25N 65°20' E 012°01'1315.2
2014-Sep-16 06:33N 65°08' E 011°49'1414.5
2014-Sep-16 05:33N 64°56' E 011°28'1414.3
2014-Sep-16 04:33N 64°46' E 011°03'358 7.4
2014-Sep-14 04:26N 59°28' E 005°13'1412.8
2014-Sep-14 03:20N 59°15' E 005°21'1113.7
2014-Sep-14 02:33N 59°06' E 005°32'1211.9
2014-Sep-14 01:34N 58°57' E 005°47'4 1.0
2014-Sep-13 21:34N 58°53' E 005°45'3 3.4
2014-Sep-13 20:33N 58°57' E 005°45'0 0.0
2014-Sep-13 19:34N 58°57' E 005°45'8 8.0
2014-Sep-13 18:34N 59°02' E 005°34'1313.0
2014-Sep-13 17:33N 58°50' E 005°26'16714.7
2014-Sep-13 06:10N 57°45' E 000°34'3914.4
2014-Sep-13 03:28N 57°29' W 000°33'1614.1
2014-Sep-13 02:20N 57°23' W 001°01'1214.3
2014-Sep-13 01:29N 57°18' W 001°21'1514.2
2014-Sep-13 00:25N 57°13' W 001°47'51 3.0
2014-Sep-12 07:12N 56°23' W 001°28'1115.2
2014-Sep-12 06:27N 56°12' W 001°21'1414.4
2014-Sep-12 05:28N 55°59' W 001°12'1613.9
2014-Sep-12 04:18N 55°44' W 001°01'1114.0
2014-Sep-12 03:32N 55°34' W 000°54'1414.2
2014-Sep-12 02:33N 55°21' W 000°45'1514.8
2014-Sep-12 01:34N 55°07' W 000°36'1915.3
2014-Sep-12 00:21N 54°50' W 000°24'1316.0
2014-Sep-11 23:33N 54°38' W 000°17'1616.5
2014-Sep-11 22:33N 54°23' W 000°06'1616.2
2014-Sep-11 21:33N 54°08' E 000°05'1615.4
2014-Sep-11 20:31N 53°53' E 000°15'1414.0
2014-Sep-11 19:32N 53°40' E 000°23'1111.2
2014-Sep-11 18:33N 53°33' E 000°08'8 7.5
2014-Sep-11 17:33N 53°35' W 000°04'0 0.0
2014-Sep-11 16:33N 53°35' W 000°04'0 0.0
2014-Sep-11 15:33N 53°35' W 000°04'0 0.0
2014-Sep-11 14:33N 53°35' W 000°04'0 0.0
2014-Sep-11 13:33N 53°35' W 000°04'0 0.0
2014-Sep-11 12:33N 53°35' W 000°04'0 0.0
2014-Sep-11 11:33N 53°35' W 000°04'0 0.0
2014-Sep-11 10:33N 53°35' W 000°04'0 0.0
2014-Sep-11 09:32N 53°35' W 000°04'0 0.0
2014-Sep-11 08:33N 53°35' W 000°04'0 0.0
2014-Sep-11 07:33N 53°35' W 000°04'0 0.0
2014-Sep-11 06:33N 53°35' W 000°04'0 0.0
2014-Sep-11 05:33N 53°35' W 000°04'0 0.0
2014-Sep-11 04:33N 53°35' W 000°04'0 0.0
2014-Sep-11 03:33N 53°35' W 000°04'0 0.0
2014-Sep-11 02:33N 53°35' W 000°04'0 0.0
2014-Sep-11 01:33N 53°35' W 000°04'0 0.0
2014-Sep-11 00:34N 53°35' W 000°04'0 0.0
2014-Sep-10 23:33N 53°35' W 000°04'0 0.0
2014-Sep-10 22:33N 53°35' W 000°04'0 0.0
2014-Sep-10 21:33N 53°35' W 000°04'0 0.0
2014-Sep-10 20:33N 53°35' W 000°04'0 0.0
2014-Sep-10 19:33N 53°35' W 000°04'0 0.0
2014-Sep-10 18:33N 53°35' W 000°04'0 0.0
2014-Sep-10 17:33N 53°35' W 000°04'0 0.0
2014-Sep-10 16:33N 53°35' W 000°04'0 0.0
2014-Sep-10 15:33N 53°35' W 000°04'0 0.0
2014-Sep-10 14:33N 53°35' W 000°04'0 0.0
2014-Sep-10 13:33N 53°35' W 000°04'0 0.0
2014-Sep-10 12:33N 53°35' W 000°04'0 0.0
2014-Sep-10 11:33N 53°35' W 000°04'0 0.0
2014-Sep-10 10:33N 53°35' W 000°04'0 0.0
2014-Sep-10 09:33N 53°35' W 000°04'0 0.0
2014-Sep-10 08:33N 53°35' W 000°04'0 0.0
2014-Sep-10 07:33N 53°35' W 000°04'0 0.0
2014-Sep-10 06:34N 53°35' W 000°04'0 0.0
2014-Sep-10 05:33N 53°35' W 000°04'0 0.4
2014-Sep-10 04:33N 53°35' W 000°04'4 4.2
2014-Sep-10 03:33N 53°35' E 000°03'1010.4
2014-Sep-10 02:34N 53°31' E 000°19'8 8.0
2014-Sep-10 01:33N 53°27' E 000°31'3511.6
2014-Sep-09 22:33N 53°14' E 001°24'1312.8
2014-Sep-09 21:33N 53°08' E 001°44'1211.2
2014-Sep-09 20:30N 53°03' E 002°01'5112.1
2014-Sep-09 16:16N 52°44' E 003°21'913.1
2014-Sep-09 15:33N 52°40' E 003°34'1312.9
2014-Sep-09 14:33N 52°33' E 003°52'1211.9
2014-Sep-09 13:33N 52°31' E 004°11'1212.7
2014-Sep-09 12:33N 52°28' E 004°31'5 4.8
2014-Sep-09 11:34N 52°28' E 004°39'1 0.6
2014-Sep-09 10:33N 52°28' E 004°40'0 0.0
2014-Sep-09 09:33N 52°28' E 004°40'0 0.0
2014-Sep-09 08:33N 52°28' E 004°40'0 0.0
2014-Sep-09 07:34N 52°28' E 004°40'0 0.0
2014-Sep-09 06:34N 52°28' E 004°40'0 0.0
2014-Sep-09 05:34N 52°28' E 004°40'0 0.0
2014-Sep-09 04:34N 52°28' E 004°40'0 0.0
2014-Sep-09 03:34N 52°28' E 004°40'0 0.0
2014-Sep-09 02:34N 52°28' E 004°40'0 0.0
2014-Sep-09 01:34N 52°28' E 004°40'0 0.0
2014-Sep-09 00:33N 52°28' E 004°40'0 0.0
2014-Sep-08 23:34N 52°28' E 004°40'0 0.0
2014-Sep-08 22:34N 52°28' E 004°40'0 0.0
2014-Sep-08 21:33N 52°28' E 004°40'0 0.0
2014-Sep-08 20:33N 52°28' E 004°40'0 0.0
2014-Sep-08 19:33N 52°28' E 004°40'0 0.0
2014-Sep-08 18:33N 52°28' E 004°40'0 0.0
2014-Sep-08 17:33N 52°28' E 004°40'0 0.0
2014-Sep-08 16:34N 52°28' E 004°40'0 0.0
2014-Sep-08 15:34N 52°28' E 004°40'0 0.0
2014-Sep-08 14:34N 52°28' E 004°40'0 0.0
2014-Sep-08 13:34N 52°28' E 004°40'0 0.0
2014-Sep-08 12:34N 52°28' E 004°40'0 0.0
2014-Sep-08 11:34N 52°28' E 004°40'0 0.0
2014-Sep-08 10:33N 52°28' E 004°40'0 0.0
2014-Sep-08 09:34N 52°28' E 004°40'0 0.0
2014-Sep-08 08:33N 52°28' E 004°40'0 0.0
2014-Sep-08 07:34N 52°28' E 004°40'0 0.0
2014-Sep-08 06:33N 52°28' E 004°40'0 0.0
2014-Sep-08 05:34N 52°28' E 004°40'0 0.0
2014-Sep-08 04:33N 52°28' E 004°40'0 0.0
2014-Sep-08 03:33N 52°28' E 004°40'0 0.0
2014-Sep-08 02:34N 52°28' E 004°40'0 0.0
2014-Sep-08 01:33N 52°28' E 004°40'0 0.0
2014-Sep-08 00:33N 52°28' E 004°40'0 0.0
2014-Sep-07 23:33N 52°28' E 004°40'4 4.5
2014-Sep-07 22:34N 52°28' E 004°33'1413.7
2014-Sep-07 21:34N 52°29' E 004°10'  

Dump ship's entire track history